createdAt,value
2022-11-13T00:02:22.183Z,100.00
2022-11-13T00:07:23.755Z,100.00
2022-11-13T00:12:25.293Z,100.00
2022-11-13T00:17:28.357Z,100.00
2022-11-13T00:22:29.817Z,100.00
2022-11-13T00:27:32.083Z,100.00
2022-11-13T00:32:33.639Z,100.00
2022-11-13T00:37:35.111Z,100.00
2022-11-13T00:42:36.586Z,100.00
2022-11-13T00:47:38.059Z,100.00
2022-11-13T00:52:39.520Z,100.00
2022-11-13T00:57:40.977Z,100.00
2022-11-13T01:02:42.480Z,100.00
2022-11-13T01:07:44.016Z,100.00
2022-11-13T01:12:45.509Z,100.00
2022-11-13T01:17:46.988Z,100.00
2022-11-13T01:22:48.541Z,100.00
2022-11-13T01:27:50.088Z,100.00
2022-11-13T01:32:51.629Z,100.00
2022-11-13T01:37:53.115Z,100.00
2022-11-13T01:42:54.584Z,100.00
2022-11-13T01:47:56.059Z,100.00
2022-11-13T01:52:57.516Z,100.00
2022-11-13T01:58:00.039Z,100.00
2022-11-13T02:03:01.793Z,100.00
2022-11-13T02:08:03.401Z,100.00
2022-11-13T02:13:05.410Z,100.00
2022-11-13T02:18:07.347Z,100.00
2022-11-13T02:23:19.832Z,100.00
2022-11-13T02:28:21.514Z,100.00
2022-11-13T02:33:26.919Z,100.00
2022-11-13T02:38:28.676Z,100.00
2022-11-13T02:43:30.433Z,100.00
2022-11-13T02:48:31.917Z,100.00
2022-11-13T02:53:33.456Z,100.00
2022-11-13T02:58:34.907Z,100.00
2022-11-13T03:08:57.785Z,100.00
2022-11-13T03:13:59.251Z,100.00
2022-11-13T03:19:00.715Z,100.00
2022-11-13T03:24:02.532Z,100.00
2022-11-13T03:29:04.046Z,100.00
2022-11-13T03:34:05.540Z,100.00
2022-11-13T03:39:07.028Z,100.00
2022-11-13T03:44:08.564Z,100.00
2022-11-13T03:49:10.029Z,100.00
2022-11-13T03:54:11.494Z,100.00
2022-11-13T03:59:12.973Z,100.00
2022-11-13T04:04:15.482Z,100.00
2022-11-13T04:09:16.982Z,100.00
2022-11-13T04:14:18.445Z,100.00
2022-11-13T04:19:19.911Z,100.00
2022-11-13T04:24:21.512Z,100.00
2022-11-13T04:29:22.955Z,100.00
2022-11-13T04:34:24.424Z,100.00
2022-11-13T04:39:25.896Z,100.00
2022-11-13T04:44:27.424Z,100.00
2022-11-13T04:49:28.919Z,100.00
2022-11-13T04:54:30.392Z,100.00
2022-11-13T04:59:32.027Z,100.00
2022-11-13T05:04:33.590Z,100.00
2022-11-13T05:09:35.096Z,100.00
2022-11-13T05:14:40.560Z,100.00
2022-11-13T05:19:42.050Z,100.00
2022-11-13T05:24:43.555Z,100.00
2022-11-13T05:29:45.119Z,100.00
2022-11-13T05:34:46.596Z,100.00
2022-11-13T05:39:48.046Z,100.00
2022-11-13T05:44:49.498Z,100.00
2022-11-13T05:49:50.968Z,100.00
2022-11-13T05:54:52.460Z,100.00
2022-11-13T05:59:53.938Z,100.00
2022-11-13T06:04:56.501Z,100.00
2022-11-13T06:09:58.173Z,100.00
2022-11-13T06:14:59.626Z,100.00
2022-11-13T06:20:01.102Z,100.00
2022-11-13T06:25:02.555Z,100.00
2022-11-13T06:30:04.429Z,100.00
2022-11-13T06:35:06.095Z,100.00
2022-11-13T06:40:08.309Z,100.00
2022-11-13T06:45:10.199Z,100.00
2022-11-13T06:50:11.756Z,100.00
2022-11-13T06:55:13.310Z,100.00
2022-11-13T07:00:15.337Z,100.00
2022-11-13T07:05:17.800Z,100.00
2022-11-13T07:10:19.262Z,100.00
2022-11-13T07:15:20.729Z,100.00
2022-11-13T07:20:22.203Z,100.00
2022-11-13T07:25:24.027Z,100.00
2022-11-13T07:30:26.200Z,100.00
2022-11-13T07:35:27.763Z,100.00
2022-11-13T07:40:29.308Z,100.00
2022-11-13T07:45:30.859Z,100.00
2022-11-13T07:50:36.763Z,100.00
2022-11-13T07:55:38.620Z,100.00
2022-11-13T08:00:40.226Z,100.00
2022-11-13T08:05:42.195Z,100.00
2022-11-13T08:10:45.160Z,100.00
2022-11-13T08:15:46.645Z,100.00
2022-11-13T08:20:48.123Z,100.00
2022-11-13T08:25:49.760Z,100.00
2022-11-13T08:30:51.197Z,100.00
2022-11-13T08:35:57.753Z,100.00
2022-11-13T08:41:03.262Z,100.00
2022-11-13T08:46:08.899Z,100.00
2022-11-13T08:51:10.401Z,100.00
2022-11-13T08:56:11.980Z,100.00
2022-11-13T09:01:13.509Z,100.00
2022-11-13T09:06:15.282Z,100.00
2022-11-13T09:11:17.247Z,100.00
2022-11-13T09:16:18.744Z,100.00
2022-11-13T09:21:20.255Z,100.00
2022-11-13T09:26:21.809Z,100.00
2022-11-13T09:31:23.300Z,100.00
2022-11-13T09:36:24.793Z,100.00
2022-11-13T09:41:29.592Z,100.00
2022-11-13T09:46:52.898Z,100.00
2022-11-13T09:51:58.520Z,100.00
2022-11-13T09:57:19.362Z,100.00
2022-11-13T10:02:33.731Z,100.00
2022-11-13T10:07:41.095Z,100.00
2022-11-13T10:12:44.493Z,100.00
2022-11-13T10:17:56.808Z,100.00
2022-11-13T10:23:12.745Z,100.00
2022-11-13T10:33:48.654Z,100.00
2022-11-13T10:38:58.451Z,100.00
2022-11-13T10:44:21.013Z,100.00
2022-11-13T10:49:29.037Z,100.00
2022-11-13T10:54:32.398Z,100.00
2022-11-13T10:59:45.126Z,100.00
2022-11-13T11:04:46.702Z,100.00
2022-11-13T11:09:50.750Z,100.00
2022-11-13T11:15:00.986Z,100.00
2022-11-13T11:20:29.336Z,100.00
2022-11-13T11:25:40.744Z,100.00
2022-11-13T11:30:51.428Z,100.00
2022-11-13T11:36:02.361Z,100.00
2022-11-13T11:41:15.985Z,100.00
2022-11-13T11:46:23.795Z,100.00
2022-11-13T11:51:38.496Z,100.00
2022-11-13T11:56:49.031Z,99.70
2022-11-13T12:01:59.306Z,100.00
2022-11-13T12:07:22.205Z,99.50
2022-11-13T12:12:49.790Z,97.46
2022-11-13T12:18:14.921Z,96.42
2022-11-13T12:23:22.122Z,95.09
2022-11-13T12:28:41.161Z,93.35
2022-11-13T12:34:01.083Z,92.77
2022-11-13T12:39:31.017Z,92.34
2022-11-13T12:44:44.928Z,93.16
2022-11-13T12:49:46.422Z,92.68
2022-11-13T12:54:47.993Z,92.77
2022-11-13T12:59:57.196Z,94.48
2022-11-13T13:05:13.876Z,95.89
2022-11-13T13:10:34.805Z,95.81
2022-11-13T13:15:38.873Z,95.40
2022-11-13T13:20:46.196Z,94.43
2022-11-13T13:25:47.704Z,94.91
2022-11-13T13:30:58.168Z,96.41
2022-11-13T13:36:24.752Z,97.56
2022-11-13T13:41:42.588Z,99.34
2022-11-13T13:46:43.935Z,100.00
2022-11-13T13:51:49.217Z,100.00
2022-11-13T13:56:50.937Z,100.00
2022-11-13T14:01:58.548Z,100.00
2022-11-13T14:07:02.050Z,100.00
2022-11-13T14:12:17.176Z,100.00
2022-11-13T14:17:24.408Z,100.00
2022-11-13T14:22:26.822Z,100.00
2022-11-13T14:27:29.044Z,100.00
2022-11-13T14:32:33.328Z,100.00
2022-11-13T14:37:39.670Z,100.00
2022-11-13T14:42:46.641Z,100.00
2022-11-13T14:47:58.076Z,100.00
2022-11-13T14:53:07.880Z,100.00
2022-11-13T14:58:14.682Z,100.00
2022-11-13T15:03:16.353Z,100.00
2022-11-13T15:08:17.899Z,100.00
2022-11-13T15:13:19.501Z,100.00
2022-11-13T15:18:21.033Z,100.00
2022-11-13T15:23:25.378Z,100.00
2022-11-13T15:28:26.985Z,100.00
2022-11-13T15:33:28.775Z,100.00
2022-11-13T15:38:30.482Z,100.00
2022-11-13T15:43:32.133Z,100.00
2022-11-13T15:48:33.721Z,100.00
2022-11-13T15:53:35.275Z,100.00
2022-11-13T15:58:36.853Z,100.00
2022-11-13T16:03:40.265Z,100.00
2022-11-13T16:08:43.436Z,100.00
2022-11-13T16:13:46.437Z,100.00
2022-11-13T16:18:50.168Z,100.00
2022-11-13T16:23:51.710Z,100.00
2022-11-13T16:34:16.426Z,100.00
2022-11-13T16:39:18.221Z,100.00
2022-11-13T16:44:19.691Z,100.00
2022-11-13T16:49:21.136Z,100.00
2022-11-13T16:54:22.621Z,100.00
2022-11-13T16:59:24.143Z,100.00
2022-11-13T17:04:26.716Z,100.00
2022-11-13T17:09:29.268Z,100.00
2022-11-13T17:14:30.719Z,100.00
2022-11-13T17:19:32.363Z,100.00
2022-11-13T17:24:33.847Z,100.00
2022-11-13T17:29:35.315Z,100.00
2022-11-13T17:34:36.795Z,100.00
2022-11-13T17:39:38.290Z,100.00
2022-11-13T17:44:39.809Z,100.00
2022-11-13T17:49:41.294Z,100.00
2022-11-13T17:54:42.799Z,100.00
2022-11-13T17:59:44.249Z,100.00
2022-11-13T18:04:45.769Z,100.00
2022-11-13T18:09:48.248Z,100.00
2022-11-13T18:14:52.588Z,100.00
2022-11-13T18:20:00.398Z,100.00
2022-11-13T18:25:03.558Z,100.00
2022-11-13T18:30:05.603Z,100.00
2022-11-13T18:35:07.556Z,100.00
2022-11-13T18:40:09.752Z,100.00
2022-11-13T18:45:11.860Z,100.00
2022-11-13T18:50:13.378Z,100.00
2022-11-13T18:55:14.909Z,100.00
2022-11-13T19:00:17.412Z,100.00
2022-11-13T19:05:18.883Z,100.00
2022-11-13T19:10:20.455Z,100.00
2022-11-13T19:15:22.054Z,100.00
2022-11-13T19:20:23.608Z,100.00
2022-11-13T19:25:26.216Z,100.00
2022-11-13T19:30:27.695Z,100.00
2022-11-13T19:35:29.252Z,100.00
2022-11-13T19:40:30.793Z,100.00
2022-11-13T19:45:32.448Z,100.00
2022-11-13T19:50:33.934Z,100.00
2022-11-13T19:55:35.586Z,100.00
2022-11-13T20:00:37.293Z,100.00
2022-11-13T20:05:44.321Z,100.00
2022-11-13T20:10:45.759Z,100.00
2022-11-13T20:15:54.679Z,100.00
2022-11-13T20:20:56.523Z,100.00
2022-11-13T20:25:59.981Z,100.00
2022-11-13T20:31:05.684Z,100.00
2022-11-13T20:36:07.483Z,100.00
2022-11-13T20:41:11.322Z,100.00
2022-11-13T20:46:14.731Z,100.00
2022-11-13T20:51:21.551Z,100.00
2022-11-13T20:56:25.169Z,100.00
2022-11-13T21:01:26.840Z,100.00
2022-11-13T21:06:28.421Z,100.00
2022-11-13T21:11:29.937Z,100.00
2022-11-13T21:16:31.772Z,100.00
2022-11-13T21:21:33.285Z,100.00
2022-11-13T21:26:34.768Z,100.00
2022-11-13T21:31:36.265Z,100.00
2022-11-13T21:36:37.768Z,100.00
2022-11-13T21:41:39.250Z,100.00
2022-11-13T21:46:45.601Z,100.00
2022-11-13T21:51:47.052Z,100.00
2022-11-13T21:56:48.538Z,100.00
2022-11-13T22:01:50.235Z,100.00
2022-11-13T22:06:52.617Z,100.00
2022-11-13T22:11:54.165Z,100.00
2022-11-13T22:16:55.638Z,100.00
2022-11-13T22:21:57.127Z,100.00
2022-11-13T22:26:58.597Z,100.00
2022-11-13T22:32:00.050Z,100.00
2022-11-13T22:37:01.518Z,100.00
2022-11-13T22:42:03.003Z,100.00
2022-11-13T22:47:04.553Z,100.00
2022-11-13T22:52:06.040Z,100.00
2022-11-13T22:57:07.521Z,100.00
2022-11-13T23:02:08.995Z,100.00
2022-11-13T23:07:10.510Z,100.00
2022-11-13T23:12:11.982Z,100.00
2022-11-13T23:17:13.456Z,100.00
2022-11-13T23:22:14.953Z,100.00
2022-11-13T23:27:16.447Z,100.00
2022-11-13T23:32:17.931Z,100.00
2022-11-13T23:37:19.404Z,100.00
2022-11-13T23:42:39.285Z,100.00
2022-11-13T23:47:43.535Z,100.00
2022-11-13T23:52:45.072Z,100.00
2022-11-13T23:57:46.970Z,100.00
